createdAt,value
2018-10-19T00:03:06.131Z,22.27
2018-10-19T00:08:09.591Z,22.25
2018-10-19T00:13:13.188Z,22.23
2018-10-19T00:18:16.639Z,22.20
2018-10-19T00:23:20.151Z,22.15
2018-10-19T00:28:23.693Z,22.11
2018-10-19T00:33:27.169Z,22.10
2018-10-19T00:38:30.649Z,22.08
2018-10-19T00:43:34.164Z,22.05
2018-10-19T00:48:37.666Z,22.04
2018-10-19T00:53:41.184Z,22.00
2018-10-19T00:58:44.700Z,21.99
2018-10-19T01:03:48.257Z,21.97
2018-10-19T01:08:51.765Z,21.96
2018-10-19T01:13:55.243Z,21.93
2018-10-19T01:18:58.792Z,21.90
2018-10-19T01:24:02.295Z,21.89
2018-10-19T01:29:05.975Z,21.86
2018-10-19T01:34:09.431Z,21.84
2018-10-19T01:39:13.552Z,21.82
2018-10-19T01:44:17.102Z,21.80
2018-10-19T01:49:21.123Z,21.78
2018-10-19T01:54:24.608Z,21.77
2018-10-19T01:59:28.156Z,21.75
2018-10-19T02:04:31.657Z,21.74
2018-10-19T02:09:35.258Z,21.72
2018-10-19T02:14:39.198Z,21.72
2018-10-19T02:19:42.697Z,21.69
2018-10-19T02:24:46.200Z,21.66
2018-10-19T02:29:49.667Z,21.65
2018-10-19T02:34:53.157Z,21.64
2018-10-19T02:39:56.644Z,21.62
2018-10-19T02:45:00.323Z,21.61
2018-10-19T02:50:04.221Z,21.62
2018-10-19T02:55:08.604Z,21.59
2018-10-19T03:00:12.911Z,21.59
2018-10-19T03:05:16.537Z,21.58
2018-10-19T03:10:19.944Z,21.58
2018-10-19T03:15:23.473Z,21.59
2018-10-19T03:20:27.007Z,21.56
2018-10-19T03:25:30.583Z,21.56
2018-10-19T03:30:34.127Z,21.54
2018-10-19T03:35:37.643Z,21.54
2018-10-19T03:40:41.176Z,21.53
2018-10-19T03:45:44.699Z,21.53
2018-10-19T03:50:48.223Z,21.56
2018-10-19T03:55:52.513Z,21.53
2018-10-19T04:00:56.000Z,21.56
2018-10-19T04:05:59.569Z,21.56
2018-10-19T04:11:03.131Z,21.54
2018-10-19T04:16:06.776Z,21.52
2018-10-19T04:21:10.402Z,21.50
2018-10-19T04:26:13.962Z,21.48
2018-10-19T04:31:17.505Z,21.48
2018-10-19T04:36:20.987Z,21.47
2018-10-19T04:41:24.720Z,21.46
2018-10-19T04:46:28.211Z,21.46
2018-10-19T04:51:31.759Z,21.45
2018-10-19T04:56:35.256Z,21.43
2018-10-19T05:01:38.707Z,21.43
2018-10-19T05:06:42.290Z,21.42
2018-10-19T05:11:45.772Z,21.41
2018-10-19T05:16:49.283Z,21.41
2018-10-19T05:21:52.722Z,21.39
2018-10-19T05:26:56.195Z,21.38
2018-10-19T05:31:59.671Z,21.36
2018-10-19T05:37:03.147Z,21.36
2018-10-19T05:42:07.716Z,21.35
2018-10-19T05:47:11.215Z,21.33
2018-10-19T05:52:14.946Z,21.32
2018-10-19T05:57:18.443Z,21.31
2018-10-19T06:02:22.082Z,21.30
2018-10-19T06:07:25.428Z,21.28
2018-10-19T06:12:28.915Z,21.26
2018-10-19T06:17:32.766Z,21.24
2018-10-19T06:22:37.084Z,21.23
2018-10-19T06:27:40.584Z,21.21
2018-10-19T06:32:44.156Z,21.20
2018-10-19T06:37:47.775Z,21.19
2018-10-19T06:42:51.309Z,21.16
2018-10-19T06:47:54.987Z,21.16
2018-10-19T06:52:58.489Z,21.15
2018-10-19T06:58:02.068Z,21.13
2018-10-19T07:03:06.323Z,21.13
2018-10-19T07:08:09.923Z,21.12
2018-10-19T07:13:13.402Z,21.11
2018-10-19T07:18:16.903Z,20.95
2018-10-19T07:23:20.355Z,18.13
2018-10-19T07:28:23.831Z,17.54
2018-10-19T07:33:27.262Z,17.21
2018-10-19T07:38:30.735Z,17.26
2018-10-19T07:43:34.182Z,17.32
2018-10-19T07:48:37.685Z,17.11
2018-10-19T07:53:41.114Z,16.97
2018-10-19T07:58:44.567Z,16.90
2018-10-19T08:03:48.186Z,18.04
2018-10-19T08:08:51.714Z,19.03
2018-10-19T08:13:55.203Z,19.66
2018-10-19T08:18:58.638Z,19.91
2018-10-19T08:24:02.095Z,20.03
2018-10-19T08:29:05.946Z,20.12
2018-10-19T08:34:09.381Z,20.13
2018-10-19T08:39:12.889Z,20.10
2018-10-19T08:44:16.379Z,20.18
2018-10-19T08:49:19.904Z,20.22
2018-10-19T08:54:24.368Z,20.29
2018-10-19T08:59:27.866Z,20.31
2018-10-19T09:04:31.394Z,20.36
2018-10-19T09:09:35.113Z,20.48
2018-10-19T09:14:57.735Z,20.51
2018-10-19T09:20:01.229Z,20.50
2018-10-19T09:25:05.007Z,20.46
2018-10-19T09:30:08.760Z,20.49
2018-10-19T09:35:12.734Z,20.50
2018-10-19T09:40:16.585Z,20.50
2018-10-19T09:45:20.129Z,20.48
2018-10-19T09:50:23.852Z,20.49
2018-10-19T09:55:28.087Z,20.49
2018-10-19T10:00:37.064Z,20.48
2018-10-19T10:05:40.740Z,20.49
2018-10-19T10:10:45.181Z,20.49
2018-10-19T10:15:48.936Z,20.49
2018-10-19T10:20:53.955Z,20.55
2018-10-19T10:25:57.503Z,20.56
2018-10-19T10:31:01.177Z,20.56
2018-10-19T10:36:05.603Z,20.55
2018-10-19T10:41:09.787Z,20.63
2018-10-19T10:46:13.263Z,20.68
2018-10-19T10:51:16.709Z,20.74
2018-10-19T10:56:20.171Z,20.75
2018-10-19T11:01:23.685Z,20.79
2018-10-19T11:06:27.139Z,20.81
2018-10-19T11:11:30.588Z,20.80
2018-10-19T11:16:34.051Z,20.75
2018-10-19T11:21:37.509Z,20.71
2018-10-19T11:26:41.022Z,20.72
2018-10-19T11:31:44.519Z,20.75
2018-10-19T11:36:48.028Z,20.75
2018-10-19T11:41:51.496Z,20.77
2018-10-19T11:46:58.319Z,20.80
2018-10-19T11:52:02.038Z,20.84
2018-10-19T11:57:05.948Z,20.91
2018-10-19T12:02:10.341Z,20.96
2018-10-19T12:07:14.027Z,21.00
2018-10-19T12:12:17.559Z,21.04
2018-10-19T12:17:21.098Z,21.07
2018-10-19T12:22:24.571Z,21.11
2018-10-19T12:27:28.124Z,21.15
2018-10-19T12:32:31.625Z,21.20
2018-10-19T12:37:35.266Z,21.22
2018-10-19T12:42:39.090Z,21.24
2018-10-19T12:47:43.828Z,21.26
2018-10-19T12:52:47.304Z,21.29
2018-10-19T12:57:50.801Z,21.30
2018-10-19T13:02:54.426Z,21.33
2018-10-19T13:07:57.904Z,21.34
2018-10-19T13:13:01.477Z,21.37
2018-10-19T13:18:05.002Z,21.37
2018-10-19T13:23:08.538Z,21.42
2018-10-19T13:28:12.110Z,21.42
2018-10-19T13:33:15.793Z,21.45
2018-10-19T13:38:19.858Z,21.45
2018-10-19T13:43:23.635Z,21.47
2018-10-19T13:48:27.177Z,21.48
2018-10-19T13:53:30.673Z,21.50
2018-10-19T13:58:34.178Z,21.65
2018-10-19T14:03:37.611Z,21.69
2018-10-19T14:08:41.104Z,21.77
2018-10-19T14:13:45.706Z,21.73
2018-10-19T14:18:49.188Z,21.65
2018-10-19T14:23:52.639Z,21.65
2018-10-19T14:28:56.132Z,21.66
2018-10-19T14:33:59.531Z,21.65
2018-10-19T14:39:03.031Z,21.66
2018-10-19T14:44:06.488Z,21.72
2018-10-19T14:49:10.024Z,21.68
2018-10-19T14:54:13.539Z,21.67
2018-10-19T14:59:17.228Z,21.70
2018-10-19T15:04:20.577Z,21.70
2018-10-19T15:09:24.141Z,21.70
2018-10-19T15:14:27.476Z,21.70
2018-10-19T15:19:31.026Z,21.72
2018-10-19T15:24:34.497Z,21.73
2018-10-19T15:29:38.104Z,21.73
2018-10-19T15:34:41.530Z,21.73
2018-10-19T15:39:44.999Z,21.73
2018-10-19T15:44:48.467Z,21.75
2018-10-19T15:49:51.929Z,21.75
2018-10-19T15:54:55.487Z,21.76
2018-10-19T15:59:59.292Z,21.75
2018-10-19T16:05:02.944Z,21.77
2018-10-19T16:10:07.165Z,21.78
2018-10-19T16:15:11.194Z,21.80
2018-10-19T16:20:15.094Z,21.81
2018-10-19T16:25:18.627Z,21.81
2018-10-19T16:30:22.667Z,21.79
2018-10-19T16:35:26.594Z,21.82
2018-10-19T16:40:30.093Z,21.84
2018-10-19T16:45:33.539Z,21.89
2018-10-19T16:50:37.070Z,21.89
2018-10-19T16:55:40.519Z,21.93
2018-10-19T17:00:43.986Z,21.92
2018-10-19T17:05:47.417Z,21.94
2018-10-19T17:10:50.932Z,21.93
2018-10-19T17:15:54.388Z,21.97
2018-10-19T17:20:57.874Z,21.97
2018-10-19T17:26:01.416Z,21.97
2018-10-19T17:31:05.435Z,21.96
2018-10-19T17:36:09.009Z,21.99
2018-10-19T17:41:12.638Z,21.96
2018-10-19T17:46:16.291Z,21.96
2018-10-19T17:51:19.785Z,21.99
2018-10-19T17:56:23.394Z,22.03
2018-10-19T18:01:26.900Z,22.14
2018-10-19T18:06:30.411Z,22.16
2018-10-19T18:11:34.068Z,22.14
2018-10-19T18:16:37.632Z,22.12
2018-10-19T18:21:41.251Z,22.07
2018-10-19T18:26:44.698Z,22.07
2018-10-19T18:31:48.185Z,22.06
2018-10-19T18:36:51.867Z,22.08
2018-10-19T18:41:55.401Z,22.06
2018-10-19T18:46:58.890Z,22.05
2018-10-19T18:52:02.381Z,22.08
2018-10-19T18:57:05.885Z,22.08
2018-10-19T19:02:09.443Z,22.09
2018-10-19T19:07:12.846Z,22.08
2018-10-19T19:12:16.378Z,22.05
2018-10-19T19:17:19.869Z,22.07
2018-10-19T19:22:23.417Z,22.15
2018-10-19T19:27:27.038Z,22.14
2018-10-19T19:32:30.743Z,22.13
2018-10-19T19:37:34.303Z,22.13
2018-10-19T19:42:46.070Z,22.16
2018-10-19T19:47:54.785Z,22.25
2018-10-19T19:52:58.260Z,22.17
2018-10-19T19:58:01.917Z,22.21
2018-10-19T20:03:05.526Z,22.12
2018-10-19T20:08:09.112Z,22.11
2018-10-19T20:13:12.502Z,22.13
2018-10-19T20:18:16.222Z,22.11
2018-10-19T20:23:19.698Z,22.13
2018-10-19T20:28:23.194Z,22.13
2018-10-19T20:33:26.988Z,22.13
2018-10-19T20:38:30.685Z,22.14
2018-10-19T20:43:34.193Z,22.12
2018-10-19T20:48:37.717Z,22.14
2018-10-19T20:53:41.202Z,22.12
2018-10-19T20:58:44.635Z,22.13
2018-10-19T21:03:48.166Z,22.13
2018-10-19T21:08:51.564Z,22.14
2018-10-19T21:13:55.190Z,22.13
2018-10-19T21:18:58.674Z,22.15
2018-10-19T21:24:02.106Z,22.12
2018-10-19T21:29:05.938Z,22.14
2018-10-19T21:34:09.458Z,22.13
2018-10-19T21:39:13.319Z,22.13
2018-10-19T21:44:17.002Z,22.14
2018-10-19T21:49:20.613Z,22.14
2018-10-19T21:54:24.173Z,22.13
2018-10-19T21:59:27.683Z,22.14
2018-10-19T22:04:31.257Z,22.14
2018-10-19T22:09:34.823Z,22.13
2018-10-19T22:14:39.804Z,22.12
2018-10-19T22:19:43.246Z,22.13
2018-10-19T22:24:46.820Z,22.11
2018-10-19T22:29:50.263Z,22.13
2018-10-19T22:34:53.785Z,22.12
2018-10-19T22:39:57.293Z,22.12
2018-10-19T22:45:00.726Z,22.16
2018-10-19T22:50:04.374Z,22.21
2018-10-19T22:55:07.914Z,22.20
2018-10-19T23:00:11.370Z,22.20
2018-10-19T23:05:14.865Z,22.18
2018-10-19T23:10:18.355Z,22.18
2018-10-19T23:15:26.237Z,22.20
2018-10-19T23:20:29.702Z,22.18
2018-10-19T23:25:33.175Z,22.17
2018-10-19T23:30:36.703Z,22.20
2018-10-19T23:35:40.492Z,22.20
2018-10-19T23:40:45.036Z,22.20
2018-10-19T23:45:48.960Z,22.23
2018-10-19T23:50:52.710Z,22.24
2018-10-19T23:55:56.292Z,22.22
